Home PIREPS Pireps

Flight BEL8543

  • Submitted By: Stijn Mertens
  • Departure Airport: Bruxelles National (EBBR)
  • Arrival Airport: Cadjehoun Airport (DBBB)
  • Aircraft: A330-301 (OO-SFM)
  • Flight Time: 06.47
  • Date Submitted: 12/02/2016
  • Status: Accepted
Flight Details
Gross Revenue:
(237 load / € 670.00 per unit
€ 158,790.00
Fuel Cost:
(27002 fuel used @ 5.1 / unit)
€ 137,710.20

Additional Log Information:

View Log

Aircraft Used in flight is QWSim Boeing 757-300WL United CO Merger VC
17:59 Brakes are On
18:04 Brakes are Released
18:09 You Took off @ 188 Knots and Flaps at Position 2
Departure Weather
EBBR 121650Z 10007KT CAVOK 04/M01 Q0995 NOSIGrn
18:09 Landing Gear Up @ 200 Knots and 310 Feet
18:14 Below Fl100 you need to turn on the landing lights
18:14 Below FL100 you need to turn on the landing lights
00:22 You are Airborne and your Beacons are off
00:22 You are Airborne and your Navigation Lights are off
00:22 Above FL100 you need to switch of the landing lights
00:22 Above FL100 you need to switch of the landing lights
00:31 Below FL100 you need to turn on the landing lights
00:40 Landing Gear Down @ 192 Knots and 2830 Feet
00:45 You Landed @ 128 Knots and with -100 Vertical Speed
Arrival Weather
DBBB 122300Z 21010KT 6000 SCT010 28/27 Q1011 NOSIGrn
00:45 Brakes are On
00:46 Brussels Bel-Track1.0.1.2

Route Map

Corporate About Us Our Team Vacancies Information Fleet Route Network Rules and Regulations Operations Flight Schedules Event Center Tours Partners IVAO Vatsim Acars dev FSCB

fb Users Online No pilots online!
0 Pilot(s) and 176 Guest(s) Online
CMS by phpVMS - Design by Crazycreatives.com - Copyright © 2020 - Brussels Airlines Virtual